sensor_id;sensor_type;location;lat;lon;timestamp;pressure;altitude;pressure_sealevel;temperature;humidity
52947;BME280;45776;40.400;17.260;2022-07-25T00:02:04;100982.50;;;30.26;100.00
52947;BME280;45776;40.400;17.260;2022-07-25T00:04:30;100976.16;;;29.67;100.00
52947;BME280;45776;40.400;17.260;2022-07-25T00:06:55;100980.84;;;30.24;100.00
52947;BME280;45776;40.400;17.260;2022-07-25T00:09:21;100963.88;;;30.83;100.00
52947;BME280;45776;40.400;17.260;2022-07-25T00:11:46;100963.63;;;31.07;99.72
52947;BME280;45776;40.400;17.260;2022-07-25T00:14:12;100969.22;;;31.39;100.00
52947;BME280;45776;40.400;17.260;2022-07-25T00:16:37;100967.97;;;32.17;100.00
52947;BME280;45776;40.400;17.260;2022-07-25T00:19:04;100963.13;;;31.90;100.00
52947;BME280;45776;40.400;17.260;2022-07-25T00:21:29;100963.72;;;32.80;100.00
52947;BME280;45776;40.400;17.260;2022-07-25T00:23:55;100966.47;;;33.10;100.00
52947;BME280;45776;40.400;17.260;2022-07-25T00:26:21;100960.53;;;32.39;100.00
52947;BME280;45776;40.400;17.260;2022-07-25T00:28:46;100961.56;;;33.79;100.00
52947;BME280;45776;40.400;17.260;2022-07-25T00:31:12;100968.50;;;31.72;100.00
52947;BME280;45776;40.400;17.260;2022-07-25T00:33:37;100964.53;;;34.49;90.81
52947;BME280;45776;40.400;17.260;2022-07-25T00:36:06;100958.84;;;34.53;90.64
52947;BME280;45776;40.400;17.260;2022-07-25T00:38:31;100957.81;;;34.12;87.79
52947;BME280;45776;40.400;17.260;2022-07-25T00:40:57;100950.72;;;34.97;78.91
52947;BME280;45776;40.400;17.260;2022-07-25T00:43:22;100947.69;;;34.59;76.82
52947;BME280;45776;40.400;17.260;2022-07-25T00:45:48;100949.16;;;34.36;76.87
52947;BME280;45776;40.400;17.260;2022-07-25T00:48:13;100964.16;;;31.70;97.60
52947;BME280;45776;40.400;17.260;2022-07-25T00:50:39;100945.59;;;33.92;74.32
52947;BME280;45776;40.400;17.260;2022-07-25T00:53:05;100959.75;;;31.69;93.57
52947;BME280;45776;40.400;17.260;2022-07-25T00:55:31;100958.25;;;31.81;97.69
52947;BME280;45776;40.400;17.260;2022-07-25T00:57:56;100959.84;;;31.85;96.28
52947;BME280;45776;40.400;17.260;2022-07-25T01:00:22;100957.66;;;31.02;99.10
52947;BME280;45776;40.400;17.260;2022-07-25T01:02:47;100958.25;;;29.69;100.00
52947;BME280;45776;40.400;17.260;2022-07-25T01:05:13;100956.97;;;30.40;100.00
52947;BME280;45776;40.400;17.260;2022-07-25T01:07:39;100946.22;;;31.18;100.00
52947;BME280;45776;40.400;17.260;2022-07-25T01:10:06;100946.56;;;31.64;100.00
52947;BME280;45776;40.400;17.260;2022-07-25T01:12:31;100942.56;;;30.63;99.70
52947;BME280;45776;40.400;17.260;2022-07-25T01:14:57;100939.91;;;29.40;100.00
52947;BME280;45776;40.400;17.260;2022-07-25T01:17:23;100941.38;;;29.68;100.00
52947;BME280;45776;40.400;17.260;2022-07-25T01:19:48;100938.94;;;31.56;96.53
52947;BME280;45776;40.400;17.260;2022-07-25T01:22:15;100938.75;;;31.24;88.16
52947;BME280;45776;40.400;17.260;2022-07-25T01:24:41;100933.13;;;33.91;100.00
52947;BME280;45776;40.400;17.260;2022-07-25T01:27:06;100923.25;;;34.91;100.00
52947;BME280;45776;40.400;17.260;2022-07-25T01:29:32;100933.19;;;35.84;95.74
52947;BME280;45776;40.400;17.260;2022-07-25T01:31:58;100932.59;;;35.53;93.15
52947;BME280;45776;40.400;17.260;2022-07-25T01:34:23;100927.41;;;33.81;100.00
52947;BME280;45776;40.400;17.260;2022-07-25T01:36:48;100935.53;;;33.65;99.43
52947;BME280;45776;40.400;17.260;2022-07-25T01:39:14;100926.94;;;32.82;100.00
52947;BME280;45776;40.400;17.260;2022-07-25T01:41:39;100936.91;;;32.30;100.00
52947;BME280;45776;40.400;17.260;2022-07-25T01:44:05;100929.44;;;31.68;100.00
52947;BME280;45776;40.400;17.260;2022-07-25T01:46:30;100924.47;;;31.78;100.00
52947;BME280;45776;40.400;17.260;2022-07-25T01:48:56;100923.16;;;32.03;100.00
52947;BME280;45776;40.400;17.260;2022-07-25T01:51:21;100928.75;;;32.16;100.00
52947;BME280;45776;40.400;17.260;2022-07-25T01:53:47;100925.88;;;32.19;100.00
52947;BME280;45776;40.400;17.260;2022-07-25T01:56:12;100919.47;;;32.05;100.00
52947;BME280;45776;40.400;17.260;2022-07-25T01:58:38;100914.34;;;32.01;100.00
52947;BME280;45776;40.400;17.260;2022-07-25T02:01:03;100914.34;;;32.01;100.00
52947;BME280;45776;40.400;17.260;2022-07-25T02:03:29;100922.78;;;31.93;100.00
52947;BME280;45776;40.400;17.260;2022-07-25T02:05:59;100920.44;;;31.87;100.00
52947;BME280;45776;40.400;17.260;2022-07-25T02:08:25;100923.03;;;31.53;100.00
52947;BME280;45776;40.400;17.260;2022-07-25T02:10:51;100922.94;;;31.20;100.00
52947;BME280;45776;40.400;17.260;2022-07-25T02:13:17;100913.91;;;31.03;100.00
52947;BME280;45776;40.400;17.260;2022-07-25T02:15:42;100918.31;;;30.85;100.00
52947;BME280;45776;40.400;17.260;2022-07-25T02:18:08;100915.44;;;30.90;100.00
52947;BME280;45776;40.400;17.260;2022-07-25T02:20:33;100916.72;;;31.00;100.00
52947;BME280;45776;40.400;17.260;2022-07-25T02:22:59;100916.81;;;30.98;100.00
52947;BME280;45776;40.400;17.260;2022-07-25T02:25:24;100918.16;;;31.07;100.00
52947;BME280;45776;40.400;17.260;2022-07-25T02:27:50;100913.22;;;31.17;100.00
52947;BME280;45776;40.400;17.260;2022-07-25T02:30:15;100912.59;;;31.12;100.00
52947;BME280;45776;40.400;17.260;2022-07-25T02:32:41;100916.31;;;31.09;100.00
52947;BME280;45776;40.400;17.260;2022-07-25T02:35:07;100905.53;;;31.11;100.00
52947;BME280;45776;40.400;17.260;2022-07-25T02:37:32;100903.94;;;31.07;100.00
52947;BME280;45776;40.400;17.260;2022-07-25T02:39:58;100909.09;;;31.11;100.00
52947;BME280;45776;40.400;17.260;2022-07-25T02:42:24;100910.13;;;31.07;100.00
52947;BME280;45776;40.400;17.260;2022-07-25T02:44:50;100903.66;;;31.13;100.00
52947;BME280;45776;40.400;17.260;2022-07-25T02:47:15;100910.66;;;31.15;100.00
52947;BME280;45776;40.400;17.260;2022-07-25T02:49:41;100897.97;;;31.19;100.00
52947;BME280;45776;40.400;17.260;2022-07-25T02:52:06;100906.75;;;31.04;100.00
52947;BME280;45776;40.400;17.260;2022-07-25T02:54:32;100903.72;;;31.11;100.00
52947;BME280;45776;40.400;17.260;2022-07-25T02:56:57;100907.91;;;30.98;100.00
52947;BME280;45776;40.400;17.260;2022-07-25T02:59:23;100906.88;;;30.83;100.00
52947;BME280;45776;40.400;17.260;2022-07-25T03:01:48;100910.06;;;30.72;100.00
52947;BME280;45776;40.400;17.260;2022-07-25T03:04:14;100913.22;;;30.61;100.00
52947;BME280;45776;40.400;17.260;2022-07-25T03:06:40;100904.38;;;30.21;100.00
52947;BME280;45776;40.400;17.260;2022-07-25T03:09:05;100917.97;;;30.16;100.00
52947;BME280;45776;40.400;17.260;2022-07-25T03:11:31;100919.81;;;30.14;100.00
52947;BME280;45776;40.400;17.260;2022-07-25T03:13:59;100918.41;;;30.05;100.00
52947;BME280;45776;40.400;17.260;2022-07-25T03:16:24;100926.44;;;29.64;100.00
52947;BME280;45776;40.400;17.260;2022-07-25T03:18:50;100926.63;;;29.59;100.00
52947;BME280;45776;40.400;17.260;2022-07-25T03:21:16;100929.22;;;29.82;100.00
52947;BME280;45776;40.400;17.260;2022-07-25T03:23:42;100939.56;;;29.48;100.00
52947;BME280;45776;40.400;17.260;2022-07-25T03:26:07;100932.00;;;29.37;100.00
52947;BME280;45776;40.400;17.260;2022-07-25T03:28:33;100930.50;;;29.52;100.00
52947;BME280;45776;40.400;17.260;2022-07-25T03:30:58;100929.97;;;29.65;100.00
52947;BME280;45776;40.400;17.260;2022-07-25T03:33:24;100925.41;;;29.46;100.00
52947;BME280;45776;40.400;17.260;2022-07-25T03:35:49;100928.88;;;29.48;100.00
52947;BME280;45776;40.400;17.260;2022-07-25T03:38:15;100935.09;;;29.26;100.00
52947;BME280;45776;40.400;17.260;2022-07-25T03:40:40;100929.31;;;29.59;100.00
52947;BME280;45776;40.400;17.260;2022-07-25T03:43:06;100925.06;;;29.33;100.00
52947;BME280;45776;40.400;17.260;2022-07-25T03:45:31;100927.09;;;29.04;100.00
52947;BME280;45776;40.400;17.260;2022-07-25T03:47:57;100922.69;;;29.25;100.00
52947;BME280;45776;40.400;17.260;2022-07-25T03:50:22;100924.19;;;28.88;100.00
52947;BME280;45776;40.400;17.260;2022-07-25T03:52:48;100926.63;;;28.94;100.00
52947;BME280;45776;40.400;17.260;2022-07-25T03:55:13;100921.13;;;28.98;100.00
52947;BME280;45776;40.400;17.260;2022-07-25T03:57:39;100913.13;;;28.98;100.00
52947;BME280;45776;40.400;17.260;2022-07-25T04:00:06;100916.31;;;28.85;100.00
52947;BME280;45776;40.400;17.260;2022-07-25T04:02:32;100918.06;;;28.86;100.00
52947;BME280;45776;40.400;17.260;2022-07-25T04:04:57;100917.91;;;28.65;100.00
52947;BME280;45776;40.400;17.260;2022-07-25T04:07:23;100921.41;;;28.68;100.00
52947;BME280;45776;40.400;17.260;2022-07-25T04:09:48;100922.81;;;28.54;100.00
52947;BME280;45776;40.400;17.260;2022-07-25T04:12:14;100921.41;;;28.68;100.00
52947;BME280;45776;40.400;17.260;2022-07-25T04:14:39;100918.66;;;28.69;100.00
52947;BME280;45776;40.400;17.260;2022-07-25T04:17:05;100926.91;;;28.63;100.00
52947;BME280;45776;40.400;17.260;2022-07-25T04:19:30;100933.41;;;28.56;100.00
52947;BME280;45776;40.400;17.260;2022-07-25T04:21:56;100928.31;;;28.49;100.00
52947;BME280;45776;40.400;17.260;2022-07-25T04:24:21;100923.56;;;28.34;100.00
52947;BME280;45776;40.400;17.260;2022-07-25T04:26:47;100929.00;;;28.55;100.00
52947;BME280;45776;40.400;17.260;2022-07-25T04:29:13;100930.81;;;28.54;100.00
52947;BME280;45776;40.400;17.260;2022-07-25T04:31:38;100921.94;;;28.54;100.00
52947;BME280;45776;40.400;17.260;2022-07-25T04:34:04;100922.75;;;28.56;100.00
52947;BME280;45776;40.400;17.260;2022-07-25T04:36:29;100924.38;;;28.60;100.00
52947;BME280;45776;40.400;17.260;2022-07-25T04:38:55;100916.44;;;28.58;100.00
52947;BME280;45776;40.400;17.260;2022-07-25T04:41:20;100923.16;;;28.45;100.00
52947;BME280;45776;40.400;17.260;2022-07-25T04:43:46;100926.97;;;28.61;100.00
52947;BME280;45776;40.400;17.260;2022-07-25T04:46:11;100928.97;;;28.56;100.00
52947;BME280;45776;40.400;17.260;2022-07-25T04:48:37;100928.31;;;28.49;100.00
52947;BME280;45776;40.400;17.260;2022-07-25T04:51:02;100932.75;;;28.49;100.00
52947;BME280;45776;40.400;17.260;2022-07-25T04:53:28;100930.09;;;28.49;100.00
52947;BME280;45776;40.400;17.260;2022-07-25T04:55:53;100932.41;;;28.58;100.00
52947;BME280;45776;40.400;17.260;2022-07-25T04:58:19;100930.47;;;28.87;100.00
52947;BME280;45776;40.400;17.260;2022-07-25T05:00:44;100930.91;;;28.75;100.00
52947;BME280;45776;40.400;17.260;2022-07-25T05:03:10;100934.72;;;28.68;100.00
52947;BME280;45776;40.400;17.260;2022-07-25T05:05:35;100935.44;;;28.73;100.00
52947;BME280;45776;40.400;17.260;2022-07-25T05:08:01;100942.81;;;28.64;100.00
52947;BME280;45776;40.400;17.260;2022-07-25T05:10:27;100941.66;;;28.73;100.00
52947;BME280;45776;40.400;17.260;2022-07-25T05:12:54;100944.47;;;28.69;100.00
52947;BME280;45776;40.400;17.260;2022-07-25T05:15:19;100934.91;;;28.87;100.00
52947;BME280;45776;40.400;17.260;2022-07-25T05:17:45;100934.59;;;28.94;100.00
52947;BME280;45776;40.400;17.260;2022-07-25T05:20:11;100934.66;;;28.93;100.00
52947;BME280;45776;40.400;17.260;2022-07-25T05:22:37;100937.28;;;28.94;100.00
52947;BME280;45776;40.400;17.260;2022-07-25T05:25:06;100937.09;;;28.99;100.00
52947;BME280;45776;40.400;17.260;2022-07-25T05:27:31;100940.50;;;29.03;100.00
52947;BME280;45776;40.400;17.260;2022-07-25T05:29:57;100933.09;;;29.09;100.00
52947;BME280;45776;40.400;17.260;2022-07-25T05:32:22;100935.94;;;29.27;100.00
52947;BME280;45776;40.400;17.260;2022-07-25T05:34:48;100934.09;;;29.29;100.00
52947;BME280;45776;40.400;17.260;2022-07-25T05:37:13;100933.78;;;29.37;100.00
52947;BME280;45776;40.400;17.260;2022-07-25T05:39:39;100934.50;;;29.42;100.00
52947;BME280;45776;40.400;17.260;2022-07-25T05:42:05;100928.63;;;29.54;100.00
52947;BME280;45776;40.400;17.260;2022-07-25T05:44:31;100942.56;;;29.61;100.00
52947;BME280;45776;40.400;17.260;2022-07-25T05:46:57;100931.16;;;29.78;100.00
52947;BME280;45776;40.400;17.260;2022-07-25T05:49:22;100931.97;;;29.80;98.86
52947;BME280;45776;40.400;17.260;2022-07-25T05:51:48;100938.38;;;29.76;95.63
52947;BME280;45776;40.400;17.260;2022-07-25T05:54:13;100935.97;;;29.70;94.87
52947;BME280;45776;40.400;17.260;2022-07-25T05:56:39;100936.59;;;29.56;91.85
52947;BME280;45776;40.400;17.260;2022-07-25T05:59:04;100935.38;;;29.63;91.89
52947;BME280;45776;40.400;17.260;2022-07-25T06:01:30;100936.56;;;29.77;91.73
52947;BME280;45776;40.400;17.260;2022-07-25T06:03:55;100933.19;;;29.73;89.80
52947;BME280;45776;40.400;17.260;2022-07-25T06:06:21;100930.97;;;29.83;89.68
52947;BME280;45776;40.400;17.260;2022-07-25T06:08:46;100925.50;;;29.86;89.85
52947;BME280;45776;40.400;17.260;2022-07-25T06:11:12;100930.28;;;30.00;89.46
52947;BME280;45776;40.400;17.260;2022-07-25T06:13:38;100929.50;;;30.17;85.88
52947;BME280;45776;40.400;17.260;2022-07-25T06:16:03;100929.41;;;30.18;87.88
52947;BME280;45776;40.400;17.260;2022-07-25T06:18:30;100929.56;;;30.15;88.98
52947;BME280;45776;40.400;17.260;2022-07-25T06:20:55;100928.69;;;30.15;88.88
52947;BME280;45776;40.400;17.260;2022-07-25T06:23:21;100931.56;;;30.10;88.18
52947;BME280;45776;40.400;17.260;2022-07-25T06:25:47;100935.88;;;30.33;88.55
52947;BME280;45776;40.400;17.260;2022-07-25T06:28:13;100932.16;;;30.17;86.72
52947;BME280;45776;40.400;17.260;2022-07-25T06:30:40;100933.63;;;30.24;86.94
52947;BME280;45776;40.400;17.260;2022-07-25T06:33:06;100935.06;;;30.31;87.07
52947;BME280;45776;40.400;17.260;2022-07-25T06:35:31;100944.19;;;30.46;88.26
52947;BME280;45776;40.400;17.260;2022-07-25T06:37:57;100937.09;;;30.45;85.91
52947;BME280;45776;40.400;17.260;2022-07-25T06:40:23;100927.56;;;30.60;87.42
52947;BME280;45776;40.400;17.260;2022-07-25T06:42:48;100933.84;;;30.59;85.97
52947;BME280;45776;40.400;17.260;2022-07-25T06:45:14;100931.78;;;30.64;86.42
52947;BME280;45776;40.400;17.260;2022-07-25T06:47:41;100926.25;;;30.69;87.33
52947;BME280;45776;40.400;17.260;2022-07-25T06:50:10;100931.66;;;30.67;86.02
52947;BME280;45776;40.400;17.260;2022-07-25T06:52:36;100935.81;;;30.73;85.38
52947;BME280;45776;40.400;17.260;2022-07-25T06:55:02;100930.94;;;30.83;85.54
52947;BME280;45776;40.400;17.260;2022-07-25T06:57:28;100933.03;;;30.76;85.07
52947;BME280;45776;40.400;17.260;2022-07-25T06:59:53;100937.00;;;30.87;84.17
52947;BME280;45776;40.400;17.260;2022-07-25T07:02:19;100935.88;;;30.91;81.67
52947;BME280;45776;40.400;17.260;2022-07-25T07:04:44;100927.31;;;30.84;81.75
52947;BME280;45776;40.400;17.260;2022-07-25T07:07:10;100930.31;;;30.95;81.31
52947;BME280;45776;40.400;17.260;2022-07-25T07:09:35;100931.84;;;31.01;79.26
52947;BME280;45776;40.400;17.260;2022-07-25T07:12:01;100928.06;;;31.05;80.36
52947;BME280;45776;40.400;17.260;2022-07-25T07:14:26;100922.56;;;31.08;79.02
52947;BME280;45776;40.400;17.260;2022-07-25T07:16:52;100924.53;;;31.05;78.57
52947;BME280;45776;40.400;17.260;2022-07-25T07:19:17;100918.75;;;31.14;77.37
52947;BME280;45776;40.400;17.260;2022-07-25T07:21:43;100928.78;;;31.28;77.32
52947;BME280;45776;40.400;17.260;2022-07-25T07:24:09;100929.16;;;31.20;77.30
52947;BME280;45776;40.400;17.260;2022-07-25T07:26:35;100932.94;;;31.51;84.72
52947;BME280;45776;40.400;17.260;2022-07-25T07:29:01;100924.38;;;31.27;100.00
52947;BME280;45776;40.400;17.260;2022-07-25T07:31:29;100916.38;;;31.25;100.00
52947;BME280;45776;40.400;17.260;2022-07-25T07:33:55;100917.81;;;31.50;100.00
52947;BME280;45776;40.400;17.260;2022-07-25T07:36:21;100915.72;;;31.57;100.00
52947;BME280;45776;40.400;17.260;2022-07-25T07:38:46;100922.94;;;31.55;100.00
52947;BME280;45776;40.400;17.260;2022-07-25T07:41:13;100925.28;;;31.61;95.71
52947;BME280;45776;40.400;17.260;2022-07-25T07:43:39;100924.22;;;31.65;95.87
52947;BME280;45776;40.400;17.260;2022-07-25T07:46:04;100928.66;;;31.84;97.38
52947;BME280;45776;40.400;17.260;2022-07-25T07:48:30;100915.63;;;31.76;94.85
52947;BME280;45776;40.400;17.260;2022-07-25T07:50:57;100922.63;;;31.96;93.11
52947;BME280;45776;40.400;17.260;2022-07-25T07:53:23;100919.94;;;31.96;100.00
52947;BME280;45776;40.400;17.260;2022-07-25T07:56:09;100919.72;;;31.30;100.00
52947;BME280;45776;40.400;17.260;2022-07-25T07:58:34;100924.28;;;30.73;100.00
52947;BME280;45776;40.400;17.260;2022-07-25T08:00:59;100924.75;;;31.00;100.00
52947;BME280;45776;40.400;17.260;2022-07-25T08:03:25;100923.66;;;31.04;100.00
52947;BME280;45776;40.400;17.260;2022-07-25T08:05:52;100921.84;;;31.24;100.00
52947;BME280;45776;40.400;17.260;2022-07-25T08:08:17;100925.59;;;31.37;100.00
52947;BME280;45776;40.400;17.260;2022-07-25T08:10:45;100920.72;;;31.45;98.05
52947;BME280;45776;40.400;17.260;2022-07-25T08:13:17;100919.09;;;31.43;95.10
52947;BME280;45776;40.400;17.260;2022-07-25T08:15:45;100916.53;;;31.76;94.86
52947;BME280;45776;40.400;17.260;2022-07-25T08:18:11;100925.78;;;31.87;92.83
52947;BME280;45776;40.400;17.260;2022-07-25T08:20:37;100918.78;;;31.84;94.43
52947;BME280;45776;40.400;17.260;2022-07-25T08:23:03;100927.19;;;31.94;94.29
52947;BME280;45776;40.400;17.260;2022-07-25T08:25:29;100931.63;;;31.77;94.12
52947;BME280;45776;40.400;17.260;2022-07-25T08:27:55;100929.31;;;31.52;94.19
52947;BME280;45776;40.400;17.260;2022-07-25T08:30:21;100932.88;;;31.70;97.61
52947;BME280;45776;40.400;17.260;2022-07-25T08:32:54;100933.13;;;31.48;100.00
52947;BME280;45776;40.400;17.260;2022-07-25T08:35:21;100929.88;;;31.05;100.00
52947;BME280;45776;40.400;17.260;2022-07-25T08:37:47;100930.53;;;31.10;100.00
52947;BME280;45776;40.400;17.260;2022-07-25T08:40:15;100930.75;;;31.24;100.00
52947;BME280;45776;40.400;17.260;2022-07-25T08:42:41;100925.78;;;31.52;100.00
52947;BME280;45776;40.400;17.260;2022-07-25T08:45:08;100925.16;;;31.82;100.00
52947;BME280;45776;40.400;17.260;2022-07-25T08:47:35;100930.50;;;31.46;100.00
52947;BME280;45776;40.400;17.260;2022-07-25T08:50:06;100931.28;;;31.31;100.00
52947;BME280;45776;40.400;17.260;2022-07-25T08:52:33;100927.88;;;31.27;100.00
52947;BME280;45776;40.400;17.260;2022-07-25T08:55:07;100932.22;;;31.47;100.00
52947;BME280;45776;40.400;17.260;2022-07-25T08:57:35;100928.53;;;31.15;100.00
52947;BME280;45776;40.400;17.260;2022-07-25T09:00:03;100921.13;;;31.38;100.00
52947;BME280;45776;40.400;17.260;2022-07-25T09:02:31;100922.16;;;31.35;100.00
52947;BME280;45776;40.400;17.260;2022-07-25T09:04:57;100917.53;;;31.39;100.00
52947;BME280;45776;40.400;17.260;2022-07-25T09:07:35;100927.38;;;31.73;100.00
52947;BME280;45776;40.400;17.260;2022-07-25T09:10:16;100921.69;;;31.97;100.00
52947;BME280;45776;40.400;17.260;2022-07-25T09:12:57;100918.97;;;32.15;100.00
52947;BME280;45776;40.400;17.260;2022-07-25T09:15:23;100919.31;;;32.42;88.00
52947;BME280;45776;40.400;17.260;2022-07-25T09:17:53;100912.72;;;32.64;82.63
52947;BME280;45776;40.400;17.260;2022-07-25T09:20:19;100909.31;;;32.78;76.60
52947;BME280;45776;40.400;17.260;2022-07-25T09:22:45;100913.94;;;32.58;79.88
52947;BME280;45776;40.400;17.260;2022-07-25T09:25:26;100916.88;;;32.69;82.38
52947;BME280;45776;40.400;17.260;2022-07-25T09:27:55;100914.03;;;33.05;78.86
52947;BME280;45776;40.400;17.260;2022-07-25T09:30:21;100911.06;;;33.09;75.48
52947;BME280;45776;40.400;17.260;2022-07-25T09:32:47;100916.69;;;33.37;72.51
52947;BME280;45776;40.400;17.260;2022-07-25T09:35:31;100915.63;;;33.39;73.19
52947;BME280;45776;40.400;17.260;2022-07-25T09:38:17;100902.34;;;33.52;72.92
52947;BME280;45776;40.400;17.260;2022-07-25T09:41:01;100907.31;;;33.44;72.10
52947;BME280;45776;40.400;17.260;2022-07-25T09:43:40;100905.31;;;33.62;67.63
52947;BME280;45776;40.400;17.260;2022-07-25T09:46:08;100904.94;;;33.68;69.69
52947;BME280;45776;40.400;17.260;2022-07-25T09:48:35;100902.00;;;33.87;67.90
52947;BME280;45776;40.400;17.260;2022-07-25T09:51:01;100897.25;;;34.07;66.44
52947;BME280;45776;40.400;17.260;2022-07-25T09:53:27;100897.81;;;34.12;68.39
52947;BME280;45776;40.400;17.260;2022-07-25T09:55:53;100892.13;;;34.17;70.84
52947;BME280;45776;40.400;17.260;2022-07-25T09:58:24;100888.97;;;34.10;74.11
52947;BME280;45776;40.400;17.260;2022-07-25T10:00:54;100886.66;;;34.18;75.88
52947;BME280;45776;40.400;17.260;2022-07-25T10:06:19;100882.72;;;34.38;74.16
52947;BME280;45776;40.400;17.260;2022-07-25T10:08:47;100875.53;;;34.10;73.43
52947;BME280;45776;40.400;17.260;2022-07-25T10:11:20;100873.72;;;34.10;74.28
52947;BME280;45776;40.400;17.260;2022-07-25T10:13:46;100877.59;;;34.34;67.64
52947;BME280;45776;40.400;17.260;2022-07-25T10:16:23;100872.94;;;34.23;76.05
52947;BME280;45776;40.400;17.260;2022-07-25T10:18:54;100866.47;;;34.25;75.32
52947;BME280;45776;40.400;17.260;2022-07-25T10:21:21;100868.44;;;34.23;68.14
52947;BME280;45776;40.400;17.260;2022-07-25T10:24:01;100865.94;;;34.62;62.60
52947;BME280;45776;40.400;17.260;2022-07-25T10:26:27;100862.78;;;34.70;62.60
52947;BME280;45776;40.400;17.260;2022-07-25T10:28:53;100861.28;;;35.06;64.07
52947;BME280;45776;40.400;17.260;2022-07-25T10:31:39;100855.78;;;34.95;65.92
52947;BME280;45776;40.400;17.260;2022-07-25T10:34:08;100849.50;;;34.67;64.17
52947;BME280;45776;40.400;17.260;2022-07-25T10:36:46;100847.84;;;34.93;58.37
52947;BME280;45776;40.400;17.260;2022-07-25T10:39:14;100849.25;;;35.12;61.29
52947;BME280;45776;40.400;17.260;2022-07-25T10:41:42;100855.53;;;35.38;64.97
52947;BME280;45776;40.400;17.260;2022-07-25T10:44:12;100848.19;;;35.01;65.62
52947;BME280;45776;40.400;17.260;2022-07-25T10:46:38;100846.53;;;34.99;64.13
52947;BME280;45776;40.400;17.260;2022-07-25T10:49:06;100839.44;;;35.11;63.06
52947;BME280;45776;40.400;17.260;2022-07-25T10:51:36;100845.81;;;34.55;62.57
52947;BME280;45776;40.400;17.260;2022-07-25T10:54:15;100841.56;;;34.93;66.95
52947;BME280;45776;40.400;17.260;2022-07-25T10:56:58;100838.50;;;34.84;77.64
52947;BME280;45776;40.400;17.260;2022-07-25T10:59:42;100835.25;;;34.79;69.15
52947;BME280;45776;40.400;17.260;2022-07-25T11:02:10;100837.16;;;34.08;74.80
52947;BME280;45776;40.400;17.260;2022-07-25T11:04:42;100826.22;;;34.80;73.71
52947;BME280;45776;40.400;17.260;2022-07-25T11:07:12;100829.66;;;34.82;70.68
52947;BME280;45776;40.400;17.260;2022-07-25T11:09:39;100823.50;;;34.67;72.58
52947;BME280;45776;40.400;17.260;2022-07-25T11:12:05;100824.00;;;34.59;68.48
52947;BME280;45776;40.400;17.260;2022-07-25T11:14:34;100820.28;;;34.06;80.37
52947;BME280;45776;40.400;17.260;2022-07-25T11:17:28;100816.75;;;34.47;83.68
52947;BME280;45776;40.400;17.260;2022-07-25T11:20:04;100818.38;;;34.50;83.69
52947;BME280;45776;40.400;17.260;2022-07-25T11:22:30;100805.22;;;34.03;73.04
52947;BME280;45776;40.400;17.260;2022-07-25T11:24:57;100810.75;;;34.15;75.39
52947;BME280;45776;40.400;17.260;2022-07-25T11:27:32;100809.75;;;34.30;70.87
52947;BME280;45776;40.400;17.260;2022-07-25T11:30:16;100810.47;;;34.61;69.96
52947;BME280;45776;40.400;17.260;2022-07-25T11:32:47;100811.22;;;34.90;69.35
52947;BME280;45776;40.400;17.260;2022-07-25T11:35:19;100805.28;;;35.51;68.82
52947;BME280;45776;40.400;17.260;2022-07-25T11:37:45;100802.59;;;35.51;66.76
52947;BME280;45776;40.400;17.260;2022-07-25T11:40:13;100795.91;;;35.57;64.04
52947;BME280;45776;40.400;17.260;2022-07-25T11:42:53;100793.22;;;35.57;63.94
52947;BME280;45776;40.400;17.260;2022-07-25T11:45:32;100785.75;;;36.24;62.65
52947;BME280;45776;40.400;17.260;2022-07-25T11:48:08;100784.84;;;36.12;66.89
52947;BME280;45776;40.400;17.260;2022-07-25T11:50:36;100780.44;;;35.85;61.28
52947;BME280;45776;40.400;17.260;2022-07-25T11:53:04;100784.03;;;35.85;62.41
52947;BME280;45776;40.400;17.260;2022-07-25T11:55:32;100776.31;;;36.05;64.59
52947;BME280;45776;40.400;17.260;2022-07-25T11:58:01;100777.44;;;35.77;65.09
52947;BME280;45776;40.400;17.260;2022-07-25T12:00:27;100775.28;;;35.95;66.82
52947;BME280;45776;40.400;17.260;2022-07-25T12:02:53;100772.69;;;35.93;64.53
52947;BME280;45776;40.400;17.260;2022-07-25T12:05:20;100779.28;;;36.26;68.57
52947;BME280;45776;40.400;17.260;2022-07-25T12:07:51;100777.44;;;36.27;69.14
52947;BME280;45776;40.400;17.260;2022-07-25T12:10:43;100782.09;;;35.23;69.68
52947;BME280;45776;40.400;17.260;2022-07-25T12:13:25;100774.13;;;35.60;68.01
52947;BME280;45776;40.400;17.260;2022-07-25T12:15:51;100774.13;;;35.73;72.65
52947;BME280;45776;40.400;17.260;2022-07-25T12:18:17;100766.47;;;35.67;76.24
52947;BME280;45776;40.400;17.260;2022-07-25T12:20:43;100764.81;;;35.90;79.79
52947;BME280;45776;40.400;17.260;2022-07-25T12:23:10;100762.13;;;36.27;72.67
52947;BME280;45776;40.400;17.260;2022-07-25T12:25:41;100758.28;;;36.67;68.86
52947;BME280;45776;40.400;17.260;2022-07-25T12:28:06;100748.84;;;36.97;63.69
52947;BME280;45776;40.400;17.260;2022-07-25T12:30:34;100741.59;;;36.98;67.54
52947;BME280;45776;40.400;17.260;2022-07-25T12:32:59;100747.75;;;37.00;63.31
52947;BME280;45776;40.400;17.260;2022-07-25T12:35:26;100733.53;;;37.32;64.61
52947;BME280;45776;40.400;17.260;2022-07-25T12:37:51;100730.97;;;37.87;64.58
52947;BME280;45776;40.400;17.260;2022-07-25T12:40:19;100730.22;;;37.62;64.22